Wetterdaten: Montag, 16.03.2015
Datum Zeit Auen-Temp. A-Temp. 2 Luftfeuchte Luftfeuchte Luftdruck Regen Wind Richtung Richtung Taupunkt Windchill Windben
16.03.2015 00:00 -0,8 C -0,5 C 78 % 78 % 1020,9 hPa 0,0 l/m 0,2 km/h (0 Bft) S 180 -3,9 C -2,3 C 0,0 km/h (0 Bft)
16.03.2015 00:05 -0,9 C -0,5 C 78 % 78 % 1021,0 hPa 0,0 l/m 0,2 km/h (0 Bft) NO 45 -3,9 C -2,0 C 2,6 km/h (1 Bft)
16.03.2015 00:10 -1,0 C -0,8 C 78 % 78 % 1021,0 hPa 0,0 l/m 0,3 km/h (0 Bft) SO 135 -4,1 C -2,1 C 0,0 km/h (0 Bft)
16.03.2015 00:15 -0,9 C -0,7 C 78 % 78 % 1021,0 hPa 0,0 l/m 0,6 km/h (0 Bft) SW 225 -4,0 C -2,0 C 0,0 km/h (0 Bft)
16.03.2015 00:20 -0,9 C -0,7 C 78 % 78 % 1021,0 hPa 0,0 l/m 0,3 km/h (0 Bft) SW 225 -4,0 C -2,0 C 0,0 km/h (0 Bft)
16.03.2015 00:25 -0,6 C -0,4 C 78 % 78 % 1021,2 hPa 0,0 l/m 0,6 km/h (0 Bft) SW 225 -3,8 C -1,8 C 0,0 km/h (0 Bft)
16.03.2015 00:30 -0,6 C -0,4 C 78 % 78 % 1021,2 hPa 0,0 l/m 0,6 km/h (0 Bft) O-NO 67 -3,8 C -1,6 C 3,7 km/h (1 Bft)
16.03.2015 00:35 -0,6 C -0,4 C 78 % 78 % 1021,2 hPa 0,0 l/m 0,2 km/h (0 Bft) W 270 -3,8 C -1,5 C 0,0 km/h (0 Bft)
16.03.2015 00:40 -0,7 C -0,4 C 78 % 78 % 1021,2 hPa 0,0 l/m 0,2 km/h (0 Bft) O-NO 67 -3,8 C -1,5 C 0,0 km/h (0 Bft)
16.03.2015 00:45 -0,7 C -0,5 C 78 % 78 % 1021,1 hPa 0,0 l/m 0,2 km/h (0 Bft) O 90 -3,9 C -1,5 C 0,0 km/h (0 Bft)
16.03.2015 00:50 -0,4 C -0,3 C 78 % 78 % 1021,1 hPa 0,0 l/m 0,6 km/h (0 Bft) W 270 -3,7 C -1,3 C 3,9 km/h (1 Bft)
16.03.2015 00:55 -0,7 C -0,5 C 78 % 78 % 1021,1 hPa 0,0 l/m 0,8 km/h (0 Bft) O-SO 112 -3,9 C -1,3 C 0,0 km/h (0 Bft)
16.03.2015 01:00 -0,7 C -0,5 C 78 % 78 % 1021,1 hPa 0,0 l/m 0,8 km/h (0 Bft) W 270 -3,9 C -1,4 C 4,7 km/h (1 Bft)
16.03.2015 01:05 -0,6 C -0,4 C 79 % 79 % 1021,0 hPa 0,0 l/m 0,2 km/h (0 Bft) O-SO 112 -3,6 C -1,4 C 0,0 km/h (0 Bft)
16.03.2015 01:10 -0,4 C -0,3 C 79 % 79 % 1021,0 hPa 0,0 l/m 0,3 km/h (0 Bft) W-NW 292 -3,5 C -1,3 C 1,6 km/h (1 Bft)
16.03.2015 01:15 -0,5 C -0,3 C 79 % 79 % 1021,0 hPa 0,0 l/m 0,0 km/h (0 Bft) O-SO 112 -3,5 C -1,2 C 0,0 km/h (0 Bft)
16.03.2015 01:20 -0,3 C -0,3 C 79 % 79 % 1021,0 hPa 0,0 l/m 0,0 km/h (0 Bft) SW 225 -3,5 C -1,1 C 0,0 km/h (0 Bft)
16.03.2015 01:25 -0,4 C -0,3 C 79 % 79 % 1021,0 hPa 0,0 l/m 0,0 km/h (0 Bft) S 180 -3,5 C -1,1 C 0,0 km/h (0 Bft)
16.03.2015 01:30 -0,2 C -0,2 C 79 % 79 % 1021,0 hPa 0,0 l/m 0,0 km/h (0 Bft) W 270 -3,4 C -1,0 C 0,0 km/h (0 Bft)
16.03.2015 01:35 -0,4 C -0,3 C 79 % 79 % 1021,0 hPa 0,0 l/m 0,5 km/h (0 Bft) O-SO 112 -3,5 C -0,9 C 0,0 km/h (0 Bft)
16.03.2015 01:40 -0,4 C -0,3 C 79 % 79 % 1021,0 hPa 0,0 l/m 0,5 km/h (0 Bft) O-NO 67 -3,5 C -1,0 C 0,0 km/h (0 Bft)
16.03.2015 01:45 -0,3 C -0,3 C 79 % 79 % 1021,0 hPa 0,0 l/m 0,0 km/h (0 Bft) W-SW 247 -3,5 C -1,0 C 0,0 km/h (0 Bft)
16.03.2015 01:50 -0,2 C -0,2 C 79 % 79 % 1021,0 hPa 0,0 l/m 0,0 km/h (0 Bft) SW 225 -3,4 C -0,9 C 0,0 km/h (0 Bft)
16.03.2015 01:55 0,0 C 0,0 C 79 % 79 % 1021,0 hPa 0,0 l/m 0,0 km/h (0 Bft) W 270 -3,2 C -0,8 C 0,0 km/h (0 Bft)
16.03.2015 02:00 -0,1 C 0,0 C 79 % 79 % 1021,0 hPa 0,0 l/m 0,2 km/h (0 Bft) NW 315 -3,2 C -0,7 C 0,0 km/h (0 Bft)
16.03.2015 02:05 -0,2 C 0,0 C 79 % 79 % 1020,8 hPa 0,0 l/m 0,2 km/h (0 Bft) O-SO 112 -3,2 C -0,8 C 0,0 km/h (0 Bft)
16.03.2015 02:10 -0,1 C 0,0 C 79 % 79 % 1020,8 hPa 0,0 l/m 0,0 km/h (0 Bft) W 270 -3,2 C -0,7 C 0,0 km/h (0 Bft)
16.03.2015 02:15 0,1 C 0,1 C 79 % 79 % 1020,8 hPa 0,0 l/m 0,0 km/h (0 Bft) O 90 -3,1 C -0,5 C 0,0 km/h (0 Bft)
16.03.2015 02:20 0,2 C 0,2 C 79 % 79 % 1020,8 hPa 0,0 l/m 0,0 km/h (0 Bft) O-NO 67 -3,0 C -0,3 C 0,0 km/h (0 Bft)
16.03.2015 02:25 0,9 C 0,9 C 79 % 79 % 1020,5 hPa 0,0 l/m 0,0 km/h (0 Bft) S 180 -2,3 C 0,6 C 0,0 km/h (0 Bft)
16.03.2015 02:30 1,4 C 1,4 C 78 % 78 % 1020,5 hPa 0,0 l/m 0,0 km/h (0 Bft) W 270 -2,0 C 1,1 C 0,0 km/h (0 Bft)
16.03.2015 02:35 2,4 C 2,4 C 77 % 77 % 1020,5 hPa 0,0 l/m 0,0 km/h (0 Bft) O-NO 67 -1,2 C 1,9 C 0,0 km/h (0 Bft)
16.03.2015 02:40 2,6 C 2,6 C 76 % 76 % 1020,5 hPa 0,0 l/m 0,0 km/h (0 Bft) N-NO 22 -1,2 C 2,2 C 0,0 km/h (0 Bft)
16.03.2015 02:45 3,1 C 3,2 C 73 % 73 % 1020,4 hPa 0,0 l/m 0,0 km/h (0 Bft) O-SO 112 -1,2 C 2,8 C 0,0 km/h (0 Bft)
16.03.2015 02:50 3,1 C 3,2 C 73 % 73 % 1020,4 hPa 0,0 l/m 0,0 km/h (0 Bft) O-SO 112 -1,2 C 2,8 C 0,0 km/h (0 Bft)
16.03.2015 02:55 3,8 C 4,2 C 69 % 69 % 1020,4 hPa 0,0 l/m 0,6 km/h (0 Bft) N-NW 337 -1,0 C 3,8 C 1,6 km/h (1 Bft)
16.03.2015 03:00 4,1 C 4,4 C 67 % 67 % 1020,4 hPa 0,0 l/m 0,6 km/h (0 Bft) NO 45 -1,2 C 3,9 C 3,1 km/h (1 Bft)
16.03.2015 03:05 4,0 C 4,5 C 65 % 65 % 1020,5 hPa 0,0 l/m 1,0 km/h (0 Bft) O-SO 112 -1,5 C 4,0 C 0,0 km/h (0 Bft)
16.03.2015 03:10 3,8 C 4,5 C 65 % 65 % 1020,5 hPa 0,0 l/m 0,6 km/h (0 Bft) O-SO 112 -1,5 C 4,0 C 5,3 km/h (1 Bft)
16.03.2015 03:15 3,8 C 4,4 C 64 % 64 % 1020,5 hPa 0,0 l/m 0,0 km/h (0 Bft) W 270 -1,8 C 3,8 C 0,0 km/h (0 Bft)
16.03.2015 03:20 4,1 C 4,5 C 64 % 64 % 1020,5 hPa 0,0 l/m 0,2 km/h (0 Bft) N 360 -1,7 C 3,8 C 2,7 km/h (1 Bft)
16.03.2015 03:25 4,2 C 4,6 C 62 % 62 % 1020,6 hPa 0,0 l/m 0,8 km/h (0 Bft) S-SO 157 -2,0 C 3,9 C 0,0 km/h (0 Bft)
16.03.2015 03:30 4,1 C 4,6 C 62 % 62 % 1020,6 hPa 0,0 l/m 0,8 km/h (0 Bft) O-NO 67 -2,0 C 3,9 C 0,0 km/h (0 Bft)
16.03.2015 03:35 4,3 C 4,8 C 61 % 61 % 1020,6 hPa 0,0 l/m 0,5 km/h (0 Bft) SO 135 -2,1 C 4,0 C 0,0 km/h (0 Bft)
16.03.2015 03:40 4,3 C 4,8 C 61 % 61 % 1020,6 hPa 0,0 l/m 0,5 km/h (0 Bft) SO 135 -2,1 C 4,0 C 6,3 km/h (2 Bft)
16.03.2015 03:45 4,2 C 4,8 C 60 % 60 % 1020,7 hPa 0,0 l/m 0,3 km/h (0 Bft) S-SW 202 -2,3 C 3,9 C 0,0 km/h (0 Bft)
16.03.2015 03:50 4,3 C 4,8 C 59 % 59 % 1020,7 hPa 0,0 l/m 0,2 km/h (0 Bft) SW 225 -2,5 C 3,9 C 0,0 km/h (0 Bft)
16.03.2015 03:55 4,2 C 4,7 C 59 % 59 % 1020,7 hPa 0,0 l/m 0,0 km/h (0 Bft) N-NO 22 -2,6 C 3,8 C 0,0 km/h (0 Bft)
16.03.2015 04:00 4,1 C 4,7 C 59 % 59 % 1020,7 hPa 0,0 l/m 0,0 km/h (0 Bft) N-NO 22 -2,6 C 3,8 C 0,0 km/h (0 Bft)
16.03.2015 04:05 3,9 C 4,6 C 59 % 59 % 1020,5 hPa 0,0 l/m 0,0 km/h (0 Bft) NO 45 -2,7 C 3,7 C 0,0 km/h (0 Bft)
16.03.2015 04:10 3,8 C 4,6 C 59 % 59 % 1020,5 hPa 0,0 l/m 0,0 km/h (0 Bft) NO 45 -2,7 C 3,7 C 0,0 km/h (0 Bft)
16.03.2015 04:15 3,9 C 4,7 C 59 % 59 % 1020,5 hPa 0,0 l/m 0,0 km/h (0 Bft) NO 45 -2,6 C 3,5 C 0,0 km/h (0 Bft)
16.03.2015 04:20 3,8 C 5,0 C 59 % 59 % 1020,5 hPa 0,0 l/m 0,0 km/h (0 Bft) O-NO 67 -2,3 C 3,4 C 0,0 km/h (0 Bft)
16.03.2015 04:25 3,9 C 5,0 C 58 % 58 % 1020,5 hPa 0,0 l/m 0,0 km/h (0 Bft) O-NO 67 -2,6 C 3,4 C 0,0 km/h (0 Bft)
16.03.2015 04:30 3,9 C 5,0 C 58 % 58 % 1020,5 hPa 0,0 l/m 0,0 km/h (0 Bft) O-NO 67 -2,6 C 3,4 C 0,0 km/h (0 Bft)
16.03.2015 04:35 4,4 C 5,2 C 57 % 57 % 1020,5 hPa 0,0 l/m 2,6 km/h (1 Bft) S-SW 202 -2,6 C 3,8 C 3,9 km/h (1 Bft)
16.03.2015 04:40 4,6 C 5,4 C 56 % 56 % 1020,5 hPa 0,0 l/m 3,1 km/h (1 Bft) S 180 -2,7 C 3,8 C 7,1 km/h (2 Bft)
16.03.2015 04:45 5,0 C 5,7 C 55 % 55 % 1020,5 hPa 0,0 l/m 2,9 km/h (1 Bft) SO 135 -2,6 C 4,4 C 1,6 km/h (1 Bft)
16.03.2015 04:50 4,8 C 5,6 C 55 % 55 % 1020,5 hPa 0,0 l/m 2,4 km/h (1 Bft) SO 135 -2,7 C 4,4 C 1,8 km/h (1 Bft)
16.03.2015 04:55 4,2 C 5,4 C 55 % 55 % 1020,5 hPa 0,0 l/m 1,0 km/h (0 Bft) SO 135 -2,9 C 4,1 C 0,0 km/h (0 Bft)
16.03.2015 05:00 4,0 C 5,3 C 56 % 56 % 1020,5 hPa 0,0 l/m 0,3 km/h (0 Bft) SO 135 -2,8 C 3,8 C 0,0 km/h (0 Bft)
16.03.2015 05:05 3,5 C 4,8 C 56 % 56 % 1020,5 hPa 0,0 l/m 0,0 km/h (0 Bft) SO 135 -3,2 C 3,3 C 0,0 km/h (0 Bft)
16.03.2015 05:10 3,4 C 4,6 C 56 % 56 % 1020,5 hPa 0,0 l/m 0,0 km/h (0 Bft) SO 135 -3,4 C 3,0 C 0,0 km/h (0 Bft)
16.03.2015 05:15 3,2 C 4,3 C 57 % 57 % 1020,5 hPa 0,0 l/m 0,0 km/h (0 Bft) SO 135 -3,5 C 2,7 C 0,0 km/h (0 Bft)
16.03.2015 05:20 3,1 C 4,2 C 57 % 57 % 1020,5 hPa 0,0 l/m 0,2 km/h (0 Bft) O-SO 112 -3,5 C 2,5 C 1,6 km/h (1 Bft)
16.03.2015 05:25 3,1 C 4,1 C 57 % 57 % 1020,6 hPa 0,0 l/m 0,5 km/h (0 Bft) SO 135 -3,6 C 2,6 C 0,0 km/h (0 Bft)
16.03.2015 05:30 3,1 C 4,0 C 57 % 57 % 1020,6 hPa 0,0 l/m 0,5 km/h (0 Bft) W-NW 292 -3,7 C 2,4 C 2,4 km/h (1 Bft)
16.03.2015 05:35 3,7 C 4,3 C 57 % 57 % 1020,6 hPa 0,0 l/m 1,3 km/h (1 Bft) O-NO 67 -3,5 C 2,9 C 0,0 km/h (0 Bft)
16.03.2015 05:40 3,8 C 4,4 C 57 % 57 % 1020,6 hPa 0,0 l/m 1,8 km/h (1 Bft) NO 45 -3,4 C 3,0 C 1,6 km/h (1 Bft)
16.03.2015 05:45 4,4 C 4,6 C 56 % 56 % 1020,1 hPa 0,0 l/m 1,9 km/h (1 Bft) O-SO 112 -3,4 C 3,2 C 10,0 km/h (2 Bft)
16.03.2015 05:50 5,2 C 5,3 C 55 % 55 % 1020,1 hPa 0,0 l/m 2,4 km/h (1 Bft) N-NO 22 -3,0 C 3,7 C 3,4 km/h (1 Bft)
16.03.2015 05:55 5,8 C 5,8 C 54 % 54 % 1020,1 hPa 0,0 l/m 2,3 km/h (1 Bft) W-NW 292 -2,8 C 4,1 C 4,8 km/h (1 Bft)
16.03.2015 06:00 5,3 C 6,0 C 51 % 51 % 1020,1 hPa 0,0 l/m 2,3 km/h (1 Bft) W 270 -3,4 C 4,4 C 5,3 km/h (1 Bft)
16.03.2015 06:05 4,4 C 5,4 C 53 % 53 % 1020,6 hPa 0,0 l/m 3,1 km/h (1 Bft) W-SW 247 -3,4 C 4,0 C 2,7 km/h (1 Bft)
16.03.2015 06:10 4,2 C 5,0 C 54 % 54 % 1020,6 hPa 0,0 l/m 3,4 km/h (1 Bft) S 180 -3,5 C 3,4 C 4,0 km/h (1 Bft)
16.03.2015 06:15 4,4 C 5,4 C 53 % 53 % 1020,6 hPa 0,0 l/m 2,9 km/h (1 Bft) S-SO 157 -3,4 C 3,7 C 3,2 km/h (1 Bft)
16.03.2015 06:20 4,5 C 5,3 C 53 % 53 % 1020,6 hPa 0,0 l/m 2,7 km/h (1 Bft) S 180 -3,5 C 3,8 C 3,5 km/h (1 Bft)
16.03.2015 06:25 4,5 C 5,0 C 53 % 53 % 1020,4 hPa 0,0 l/m 3,7 km/h (1 Bft) S-SO 157 -3,8 C 3,6 C 3,9 km/h (1 Bft)
16.03.2015 06:30 4,9 C 5,4 C 53 % 53 % 1020,4 hPa 0,0 l/m 3,9 km/h (1 Bft) SO 135 -3,4 C 3,7 C 4,0 km/h (1 Bft)
16.03.2015 06:35 4,5 C 5,3 C 52 % 52 % 1020,4 hPa 0,0 l/m 2,4 km/h (1 Bft) SO 135 -3,7 C 4,2 C 0,0 km/h (0 Bft)
16.03.2015 06:40 4,1 C 4,9 C 53 % 53 % 1020,4 hPa 0,0 l/m 1,3 km/h (1 Bft) S-SO 157 -3,9 C 3,9 C 1,6 km/h (1 Bft)
16.03.2015 06:45 3,9 C 4,7 C 53 % 53 % 1020,6 hPa 0,0 l/m 0,8 km/h (0 Bft) SW 225 -4,0 C 3,6 C 1,6 km/h (1 Bft)
16.03.2015 06:50 3,2 C 4,3 C 54 % 54 % 1020,6 hPa 0,0 l/m 0,6 km/h (0 Bft) S-SW 202 -4,2 C 3,1 C 0,0 km/h (0 Bft)
16.03.2015 06:55 3,7 C 4,4 C 54 % 54 % 1020,6 hPa 0,0 l/m 0,5 km/h (0 Bft) SO 135 -4,1 C 2,9 C 2,3 km/h (1 Bft)
16.03.2015 07:00 4,0 C 4,7 C 54 % 54 % 1020,6 hPa 0,0 l/m 0,3 km/h (0 Bft) S 180 -3,8 C 2,9 C 1,6 km/h (1 Bft)
16.03.2015 07:05 3,8 C 4,5 C 54 % 54 % 1020,7 hPa 0,0 l/m 0,5 km/h (0 Bft) O-SO 112 -4,0 C 2,9 C 3,2 km/h (1 Bft)
16.03.2015 07:10 4,1 C 4,6 C 54 % 54 % 1020,7 hPa 0,0 l/m 1,1 km/h (1 Bft) O-SO 112 -3,9 C 3,2 C 2,6 km/h (1 Bft)
16.03.2015 07:15 4,6 C 5,0 C 53 % 53 % 1020,7 hPa 0,0 l/m 2,3 km/h (1 Bft) SO 135 -3,8 C 3,8 C 2,9 km/h (1 Bft)
16.03.2015 07:20 4,6 C 5,2 C 53 % 53 % 1020,7 hPa 0,0 l/m 1,4 km/h (1 Bft) SO 135 -3,6 C 4,2 C 0,0 km/h (0 Bft)
16.03.2015 07:25 4,9 C 5,3 C 53 % 53 % 1020,8 hPa 0,0 l/m 0,6 km/h (0 Bft) S-SO 157 -3,5 C 4,6 C 1,9 km/h (1 Bft)
16.03.2015 07:30 5,4 C 5,9 C 53 % 53 % 1020,8 hPa 0,0 l/m 0,5 km/h (0 Bft) S-SO 157 -2,9 C 5,1 C 0,0 km/h (0 Bft)
16.03.2015 07:35 5,8 C 6,3 C 51 % 51 % 1020,8 hPa 0,0 l/m 0,2 km/h (0 Bft) S-SO 157 -3,1 C 5,7 C 0,0 km/h (0 Bft)
16.03.2015 07:40 6,1 C 6,6 C 51 % 51 % 1020,8 hPa 0,0 l/m 0,0 km/h (0 Bft) S-SO 157 -2,8 C 6,1 C 0,0 km/h (0 Bft)
16.03.2015 07:45 6,2 C 6,8 C 50 % 50 % 1021,0 hPa 0,0 l/m 0,0 km/h (0 Bft) SO 135 -2,9 C 6,5 C 0,0 km/h (0 Bft)
16.03.2015 07:50 6,2 C 6,8 C 50 % 50 % 1021,0 hPa 0,0 l/m 0,0 km/h (0 Bft) SO 135 -2,9 C 6,7 C 0,0 km/h (0 Bft)
16.03.2015 07:55 6,2 C 6,8 C 50 % 50 % 1021,0 hPa 0,0 l/m 0,0 km/h (0 Bft) SO 135 -2,9 C 6,7 C 0,0 km/h (0 Bft)
16.03.2015 08:00 6,0 C 6,8 C 50 % 50 % 1021,0 hPa 0,0 l/m 0,0 km/h (0 Bft) SO 135 -2,9 C 6,8 C 0,0 km/h (0 Bft)
16.03.2015 08:05 5,5 C 6,2 C 51 % 51 % 1021,0 hPa 0,0 l/m 0,0 km/h (0 Bft) S-SW 202 -3,2 C 6,5 C 1,8 km/h (1 Bft)
16.03.2015 08:10 5,2 C 5,7 C 53 % 53 % 1021,0 hPa 0,0 l/m 1,1 km/h (1 Bft) W-SW 247 -3,1 C 6,2 C 3,9 km/h (1 Bft)
16.03.2015 08:15 5,0 C 5,4 C 54 % 54 % 1021,0 hPa 0,0 l/m 1,8 km/h (1 Bft) W 270 -3,1 C 5,8 C 2,7 km/h (1 Bft)
16.03.2015 08:20 4,8 C 5,2 C 54 % 54 % 1021,0 hPa 0,0 l/m 1,4 km/h (1 Bft) W 270 -3,3 C 5,6 C 0,0 km/h (0 Bft)
16.03.2015 08:25 4,8 C 5,0 C 54 % 54 % 1021,1 hPa 0,0 l/m 1,0 km/h (0 Bft) W-SW 247 -3,5 C 5,4 C 2,7 km/h (1 Bft)
16.03.2015 08:30 5,1 C 5,2 C 54 % 54 % 1021,1 hPa 0,0 l/m 1,1 km/h (1 Bft) S 180 -3,3 C 5,4 C 2,6 km/h (1 Bft)
16.03.2015 08:35 5,3 C 5,3 C 55 % 55 % 1021,1 hPa 0,0 l/m 1,0 km/h (0 Bft) S 180 -3,0 C 5,6 C 0,0 km/h (0 Bft)
16.03.2015 08:40 4,9 C 4,9 C 56 % 56 % 1021,1 hPa 0,0 l/m 0,3 km/h (0 Bft) S 180 -3,1 C 5,6 C 0,0 km/h (0 Bft)
16.03.2015 08:45 4,9 C 4,9 C 56 % 56 % 1021,3 hPa 0,0 l/m 0,8 km/h (0 Bft) S 180 -3,1 C 5,6 C 2,4 km/h (1 Bft)
16.03.2015 08:50 5,2 C 5,2 C 56 % 56 % 1021,3 hPa 0,0 l/m 0,6 km/h (0 Bft) S 180 -2,8 C 5,8 C 0,0 km/h (0 Bft)
16.03.2015 08:55 5,0 C 5,0 C 56 % 56 % 1021,3 hPa 0,0 l/m 0,6 km/h (0 Bft) W-SW 247 -3,0 C 5,9 C 0,0 km/h (0 Bft)
16.03.2015 09:00 4,7 C 4,7 C 57 % 57 % 1021,3 hPa 0,0 l/m 0,5 km/h (0 Bft) W-SW 247 -3,1 C 5,8 C 0,0 km/h (0 Bft)
16.03.2015 09:05 4,4 C 4,4 C 58 % 58 % 1021,2 hPa 0,0 l/m 0,5 km/h (0 Bft) W-SW 247 -3,1 C 5,5 C 1,8 km/h (1 Bft)
16.03.2015 09:10 4,6 C 4,6 C 58 % 58 % 1021,2 hPa 0,0 l/m 1,1 km/h (1 Bft) W-SW 247 -2,9 C 5,5 C 2,7 km/h (1 Bft)
16.03.2015 09:15 4,6 C 4,6 C 58 % 58 % 1021,2 hPa 0,0 l/m 0,8 km/h (0 Bft) W-SW 247 -2,9 C 5,6 C 0,0 km/h (0 Bft)
16.03.2015 09:20 4,6 C 4,6 C 58 % 58 % 1021,2 hPa 0,0 l/m 0,3 km/h (0 Bft) W-SW 247 -2,9 C 5,7 C 0,0 km/h (0 Bft)
16.03.2015 09:25 4,8 C 4,8 C 57 % 57 % 1021,2 hPa 0,0 l/m 0,0 km/h (0 Bft) W-SW 247 -3,0 C 5,8 C 0,0 km/h (0 Bft)
16.03.2015 09:30 5,0 C 5,0 C 57 % 57 % 1021,2 hPa 0,0 l/m 0,0 km/h (0 Bft) W-SW 247 -2,8 C 6,1 C 0,0 km/h (0 Bft)
16.03.2015 09:35 5,3 C 5,3 C 57 % 57 % 1021,2 hPa 0,0 l/m 0,0 km/h (0 Bft) W-SW 247 -2,5 C 6,7 C 0,0 km/h (0 Bft)
16.03.2015 09:40 5,4 C 5,4 C 57 % 57 % 1021,2 hPa 0,0 l/m 0,2 km/h (0 Bft) W-SW 247 -2,4 C 6,9 C 0,0 km/h (0 Bft)
16.03.2015 09:45 5,4 C 5,4 C 57 % 57 % 1021,2 hPa 0,0 l/m 0,2 km/h (0 Bft) W-SW 247 -2,4 C 7,0 C 0,0 km/h (0 Bft)
16.03.2015 09:50 5,4 C 5,4 C 57 % 57 % 1021,2 hPa 0,0 l/m 0,0 km/h (0 Bft) W-SW 247 -2,4 C 7,0 C 0,0 km/h (0 Bft)
16.03.2015 09:55 5,5 C 5,5 C 57 % 57 % 1021,2 hPa 0,0 l/m 0,0 km/h (0 Bft) W-SW 247 -2,3 C 7,0 C 0,0 km/h (0 Bft)
16.03.2015 10:00 5,5 C 5,5 C 57 % 57 % 1021,2 hPa 0,0 l/m 0,0 km/h (0 Bft) SW 225 -2,3 C 7,0 C 1,6 km/h (1 Bft)
16.03.2015 10:05 5,5 C 5,5 C 57 % 57 % 1021,4 hPa 0,0 l/m 0,3 km/h (0 Bft) SW 225 -2,3 C 7,0 C 0,0 km/h (0 Bft)
16.03.2015 10:10 5,6 C 5,6 C 57 % 57 % 1021,4 hPa 0,0 l/m 0,3 km/h (0 Bft) SW 225 -2,2 C 7,0 C 2,3 km/h (1 Bft)
16.03.2015 10:15 5,7 C 5,7 C 56 % 56 % 1021,4 hPa 0,0 l/m 0,6 km/h (0 Bft) SW 225 -2,4 C 7,2 C 1,8 km/h (1 Bft)
16.03.2015 10:20 5,9 C 5,9 C 56 % 56 % 1021,4 hPa 0,0 l/m 1,3 km/h (1 Bft) SW 225 -2,2 C 7,4 C 1,6 km/h (1 Bft)
16.03.2015 10:25 6,2 C 6,2 C 55 % 55 % 1021,4 hPa 0,0 l/m 0,6 km/h (0 Bft) SW 225 -2,2 C 7,7 C 0,0 km/h (0 Bft)
16.03.2015 10:30 6,4 C 6,4 C 54 % 54 % 1021,4 hPa 0,0 l/m 0,6 km/h (0 Bft) SW 225 -2,2 C 7,8 C 1,9 km/h (1 Bft)
16.03.2015 10:35 6,6 C 6,6 C 54 % 54 % 1021,4 hPa 0,0 l/m 1,3 km/h (1 Bft) SW 225 -2,0 C 7,9 C 2,6 km/h (1 Bft)
16.03.2015 10:40 6,9 C 6,9 C 54 % 54 % 1021,4 hPa 0,0 l/m 1,1 km/h (1 Bft) W-SW 247 -1,8 C 8,1 C 1,8 km/h (1 Bft)
16.03.2015 10:45 6,6 C 6,6 C 55 % 55 % 1021,5 hPa 0,0 l/m 0,3 km/h (0 Bft) W-SW 247 -1,8 C 8,1 C 0,0 km/h (0 Bft)
16.03.2015 10:50 6,6 C 6,6 C 55 % 55 % 1021,5 hPa 0,0 l/m 0,2 km/h (0 Bft) W-SW 247 -1,8 C 8,4 C 0,0 km/h (0 Bft)
16.03.2015 10:55 6,8 C 6,8 C 55 % 55 % 1021,5 hPa 0,0 l/m 0,0 km/h (0 Bft) W-SW 247 -1,6 C 9,0 C 0,0 km/h (0 Bft)
16.03.2015 11:00 6,9 C 6,9 C 54 % 54 % 1021,5 hPa 0,0 l/m 0,6 km/h (0 Bft) W-SW 247 -1,8 C 9,2 C 0,0 km/h (0 Bft)
16.03.2015 11:05 6,8 C 6,8 C 54 % 54 % 1021,5 hPa 0,0 l/m 1,1 km/h (1 Bft) SW 225 -1,8 C 9,3 C 1,9 km/h (1 Bft)
16.03.2015 11:10 6,9 C 6,9 C 54 % 54 % 1021,5 hPa 0,0 l/m 1,1 km/h (1 Bft) SW 225 -1,8 C 9,3 C 0,0 km/h (0 Bft)
16.03.2015 11:15 7,3 C 7,3 C 53 % 53 % 1021,5 hPa 0,0 l/m 0,8 km/h (0 Bft) SW 225 -1,6 C 9,3 C 0,0 km/h (0 Bft)
16.03.2015 11:20 7,5 C 7,5 C 54 % 54 % 1021,5 hPa 0,0 l/m 0,5 km/h (0 Bft) SW 225 -1,2 C 9,4 C 0,0 km/h (0 Bft)
16.03.2015 11:25 7,6 C 7,6 C 54 % 54 % 1021,7 hPa 0,0 l/m 0,3 km/h (0 Bft) S-SW 202 -1,1 C 9,7 C 0,0 km/h (0 Bft)
16.03.2015 11:30 7,6 C 7,6 C 54 % 54 % 1021,7 hPa 0,0 l/m 0,3 km/h (0 Bft) S-SW 202 -1,1 C 9,8 C 0,0 km/h (0 Bft)
16.03.2015 11:35 7,9 C 7,9 C 54 % 54 % 1021,7 hPa 0,0 l/m 1,0 km/h (0 Bft) W 270 -0,8 C 10,4 C 4,5 km/h (1 Bft)
16.03.2015 11:40 8,1 C 8,1 C 53 % 53 % 1021,7 hPa 0,0 l/m 2,1 km/h (1 Bft) NW 315 -0,9 C 10,9 C 1,9 km/h (1 Bft)
16.03.2015 11:45 8,6 C 8,6 C 54 % 54 % 1019,9 hPa 0,0 l/m 1,8 km/h (1 Bft) W-NW 292 -0,2 C 12,3 C 0,0 km/h (0 Bft)
16.03.2015 11:50 8,9 C 8,9 C 54 % 54 % 1019,9 hPa 0,0 l/m 0,3 km/h (0 Bft) W-NW 292 0,1 C 13,1 C 0,0 km/h (0 Bft)
16.03.2015 11:55 9,2 C 9,2 C 52 % 52 % 1019,9 hPa 0,0 l/m 0,2 km/h (0 Bft) W-NW 292 -0,1 C 13,4 C 0,0 km/h (0 Bft)
16.03.2015 12:00 9,5 C 9,5 C 52 % 52 % 1019,9 hPa 0,0 l/m 0,2 km/h (0 Bft) W-NW 292 0,1 C 13,6 C 0,0 km/h (0 Bft)
16.03.2015 12:05 9,8 C 9,8 C 51 % 51 % 1022,2 hPa 0,0 l/m 0,0 km/h (0 Bft) NW 315 0,2 C 13,9 C 0,0 km/h (0 Bft)
16.03.2015 12:10 9,9 C 9,9 C 51 % 51 % 1022,2 hPa 0,0 l/m 0,0 km/h (0 Bft) NW 315 0,2 C 14,2 C 0,0 km/h (0 Bft)
16.03.2015 12:15 10,1 C 10,1 C 50 % 50 % 1022,2 hPa 0,0 l/m 0,0 km/h (0 Bft) O-NO 67 0,2 C 14,3 C 0,0 km/h (0 Bft)
16.03.2015 12:20 10,0 C 10,0 C 50 % 50 % 1022,2 hPa 0,0 l/m 0,5 km/h (0 Bft) NO 45 0,1 C 14,2 C 2,1 km/h (1 Bft)
16.03.2015 12:25 10,1 C 10,1 C 49 % 49 % 1022,4 hPa 0,0 l/m 1,4 km/h (1 Bft) NO 45 -0,1 C 14,0 C 2,9 km/h (1 Bft)
16.03.2015 12:30 10,4 C 10,4 C 49 % 49 % 1022,4 hPa 0,0 l/m 1,3 km/h (1 Bft) N-NO 22 0,2 C 14,4 C 0,0 km/h (0 Bft)
16.03.2015 12:35 10,6 C 10,6 C 48 % 48 % 1022,4 hPa 0,0 l/m 0,5 km/h (0 Bft) NO 45 0,1 C 15,0 C 0,0 km/h (0 Bft)
16.03.2015 12:40 10,4 C 10,4 C 48 % 48 % 1022,4 hPa 0,0 l/m 1,0 km/h (0 Bft) NO 45 -0,1 C 14,7 C 3,5 km/h (1 Bft)
16.03.2015 12:45 10,6 C 10,6 C 48 % 48 % 1022,3 hPa 0,0 l/m 1,1 km/h (1 Bft) N-NO 22 0,1 C 14,4 C 0,0 km/h (0 Bft)
16.03.2015 12:50 10,8 C 10,8 C 47 % 47 % 1022,3 hPa 0,0 l/m 0,8 km/h (0 Bft) N-NO 22 -0,1 C 14,3 C 0,0 km/h (0 Bft)
16.03.2015 12:55 11,0 C 11,0 C 47 % 47 % 1022,3 hPa 0,0 l/m 1,3 km/h (1 Bft) NW 315 0,1 C 14,5 C 1,6 km/h (1 Bft)
16.03.2015 13:00 11,0 C 11,0 C 47 % 47 % 1022,3 hPa 0,0 l/m 0,8 km/h (0 Bft) NW 315 0,1 C 14,6 C 0,0 km/h (0 Bft)
16.03.2015 13:05 11,3 C 11,3 C 47 % 47 % 1022,2 hPa 0,0 l/m 0,2 km/h (0 Bft) NO 45 0,4 C 14,9 C 0,0 km/h (0 Bft)
16.03.2015 13:10 11,5 C 11,5 C 47 % 47 % 1022,2 hPa 0,0 l/m 0,0 km/h (0 Bft) NO 45 0,6 C 15,0 C 0,0 km/h (0 Bft)
16.03.2015 13:15 11,5 C 11,5 C 47 % 47 % 1022,2 hPa 0,0 l/m 0,5 km/h (0 Bft) N-NW 337 0,6 C 15,2 C 1,9 km/h (1 Bft)
16.03.2015 13:20 11,2 C 11,2 C 47 % 47 % 1022,2 hPa 0,0 l/m 0,6 km/h (0 Bft) NW 315 0,3 C 15,0 C 0,0 km/h (0 Bft)
16.03.2015 13:25 11,0 C 11,0 C 47 % 47 % 1022,2 hPa 0,0 l/m 0,6 km/h (0 Bft) N-NW 337 0,1 C 14,6 C 0,0 km/h (0 Bft)
16.03.2015 13:30 11,0 C 11,0 C 47 % 47 % 1022,2 hPa 0,0 l/m 0,3 km/h (0 Bft) N-NW 337 0,1 C 14,6 C 0,0 km/h (0 Bft)
16.03.2015 13:35 11,4 C 11,4 C 46 % 46 % 1022,2 hPa 0,0 l/m 0,0 km/h (0 Bft) N-NW 337 0,2 C 15,3 C 0,0 km/h (0 Bft)
16.03.2015 13:40 11,8 C 11,8 C 46 % 46 % 1022,2 hPa 0,0 l/m 0,0 km/h (0 Bft) N-NW 337 0,6 C 16,3 C 0,0 km/h (0 Bft)
16.03.2015 13:45 12,4 C 12,4 C 46 % 46 % 1022,1 hPa 0,0 l/m 0,0 km/h (0 Bft) N-NW 337 1,1 C 17,8 C 0,0 km/h (0 Bft)
16.03.2015 13:50 12,9 C 12,9 C 46 % 46 % 1022,1 hPa 0,0 l/m 0,5 km/h (0 Bft) NW 315 1,6 C 19,0 C 2,6 km/h (1 Bft)
16.03.2015 13:55 12,9 C 12,9 C 45 % 45 % 1022,1 hPa 0,0 l/m 1,0 km/h (0 Bft) NO 45 1,3 C 20,6 C 4,2 km/h (1 Bft)
16.03.2015 14:00 12,9 C 12,9 C 45 % 45 % 1022,1 hPa 0,0 l/m 1,0 km/h (0 Bft) O 90 1,3 C 21,2 C 0,0 km/h (0 Bft)
16.03.2015 14:05 13,5 C 13,5 C 44 % 44 % 1022,7 hPa 0,0 l/m 0,8 km/h (0 Bft) W-NW 292 1,5 C 22,6 C 3,4 km/h (1 Bft)
16.03.2015 14:10 13,4 C 13,4 C 43 % 43 % 1022,7 hPa 0,0 l/m 1,1 km/h (1 Bft) O 90 1,1 C 22,8 C 4,3 km/h (1 Bft)
16.03.2015 14:15 13,0 C 13,0 C 42 % 42 % 1022,7 hPa 0,0 l/m 2,6 km/h (1 Bft) N-NO 22 0,4 C 22,0 C 2,6 km/h (1 Bft)
16.03.2015 14:20 13,0 C 13,0 C 41 % 41 % 1022,7 hPa 0,0 l/m 2,9 km/h (1 Bft) NO 45 0,1 C 21,6 C 2,9 km/h (1 Bft)
16.03.2015 14:25 13,2 C 13,2 C 41 % 41 % 1019,8 hPa 0,0 l/m 2,6 km/h (1 Bft) N-NO 22 0,2 C 21,0 C 1,8 km/h (1 Bft)
16.03.2015 14:30 13,5 C 13,5 C 41 % 41 % 1019,8 hPa 0,0 l/m 2,1 km/h (1 Bft) O-NO 67 0,5 C 21,0 C 0,0 km/h (0 Bft)
16.03.2015 14:35 13,2 C 13,2 C 40 % 40 % 1019,8 hPa 0,0 l/m 1,8 km/h (1 Bft) O 90 -0,1 C 20,3 C 2,9 km/h (1 Bft)
16.03.2015 14:40 13,2 C 13,2 C 39 % 39 % 1019,8 hPa 0,0 l/m 2,9 km/h (1 Bft) N-NO 22 -0,4 C 19,4 C 2,6 km/h (1 Bft)
16.03.2015 14:45 13,2 C 13,2 C 39 % 39 % 1022,8 hPa 0,0 l/m 3,2 km/h (1 Bft) N-NO 22 -0,4 C 18,8 C 3,1 km/h (1 Bft)
16.03.2015 14:50 13,1 C 13,1 C 40 % 40 % 1022,8 hPa 0,0 l/m 3,2 km/h (1 Bft) NO 45 -0,2 C 18,7 C 7,2 km/h (2 Bft)
16.03.2015 14:55 12,9 C 12,9 C 41 % 41 % 1022,8 hPa 0,0 l/m 3,9 km/h (1 Bft) N-NO 22 -0,0 C 18,1 C 5,3 km/h (1 Bft)
16.03.2015 15:00 12,7 C 12,7 C 42 % 42 % 1022,8 hPa 0,0 l/m 3,7 km/h (1 Bft) NO 45 0,1 C 17,6 C 2,1 km/h (1 Bft)
16.03.2015 15:05 12,4 C 12,4 C 43 % 43 % 1022,4 hPa 0,0 l/m 2,9 km/h (1 Bft) O-NO 67 0,2 C 16,4 C 0,0 km/h (0 Bft)
16.03.2015 15:10 12,2 C 12,2 C 43 % 43 % 1022,4 hPa 0,0 l/m 2,3 km/h (1 Bft) O-NO 67 -0,0 C 16,0 C 3,2 km/h (1 Bft)
16.03.2015 15:15 12,1 C 12,1 C 43 % 43 % 1022,4 hPa 0,0 l/m 2,1 km/h (1 Bft) O-NO 67 -0,1 C 15,8 C 0,0 km/h (0 Bft)
16.03.2015 15:20 12,1 C 12,1 C 43 % 43 % 1022,4 hPa 0,0 l/m 2,7 km/h (1 Bft) N-NO 22 -0,1 C 15,6 C 4,8 km/h (1 Bft)
16.03.2015 15:25 12,2 C 12,2 C 44 % 44 % 1022,3 hPa 0,0 l/m 2,7 km/h (1 Bft) N-NO 22 0,3 C 15,3 C 4,2 km/h (1 Bft)
16.03.2015 15:30 12,0 C 12,0 C 44 % 44 % 1022,3 hPa 0,0 l/m 2,7 km/h (1 Bft) NO 45 0,1 C 15,1 C 6,1 km/h (2 Bft)
16.03.2015 15:35 12,0 C 12,0 C 44 % 44 % 1022,3 hPa 0,0 l/m 3,2 km/h (1 Bft) O 90 0,1 C 14,9 C 5,5 km/h (1 Bft)
16.03.2015 15:40 11,9 C 11,9 C 45 % 45 % 1022,3 hPa 0,0 l/m 3,5 km/h (1 Bft) O-NO 67 0,4 C 14,5 C 2,1 km/h (1 Bft)
16.03.2015 15:45 11,7 C 11,7 C 45 % 45 % 1022,1 hPa 0,0 l/m 2,9 km/h (1 Bft) O-NO 67 0,2 C 14,3 C 1,6 km/h (1 Bft)
16.03.2015 15:50 11,6 C 11,6 C 45 % 45 % 1022,1 hPa 0,0 l/m 2,3 km/h (1 Bft) N-NO 22 0,1 C 14,2 C 3,1 km/h (1 Bft)
16.03.2015 15:55 11,6 C 11,6 C 45 % 45 % 1022,1 hPa 0,0 l/m 2,3 km/h (1 Bft) O-NO 67 0,1 C 14,0 C 2,1 km/h (1 Bft)
16.03.2015 16:00 11,5 C 11,5 C 46 % 46 % 1022,1 hPa 0,0 l/m 2,6 km/h (1 Bft) O-NO 67 0,3 C 13,7 C 4,8 km/h (1 Bft)
16.03.2015 16:05 11,2 C 11,2 C 46 % 46 % 1022,2 hPa 0,0 l/m 3,5 km/h (1 Bft) NO 45 0,0 C 13,5 C 4,5 km/h (1 Bft)
16.03.2015 16:10 11,1 C 11,1 C 46 % 46 % 1022,2 hPa 0,0 l/m 3,9 km/h (1 Bft) NO 45 -0,1 C 13,3 C 4,5 km/h (1 Bft)
16.03.2015 16:15 10,8 C 10,8 C 48 % 48 % 1022,2 hPa 0,0 l/m 4,0 km/h (1 Bft) NO 45 0,2 C 12,8 C 2,3 km/h (1 Bft)
16.03.2015 16:20 10,7 C 10,7 C 48 % 48 % 1022,2 hPa 0,0 l/m 3,7 km/h (1 Bft) O-SO 112 0,1 C 12,4 C 10,6 km/h (2 Bft)
16.03.2015 16:25 10,3 C 10,3 C 49 % 49 % 1022,3 hPa 0,0 l/m 2,9 km/h (1 Bft) N-NO 22 0,1 C 11,9 C 4,7 km/h (1 Bft)
16.03.2015 16:30 10,2 C 10,2 C 50 % 50 % 1022,3 hPa 0,0 l/m 2,7 km/h (1 Bft) O-NO 67 0,3 C 11,4 C 0,0 km/h (0 Bft)
16.03.2015 16:35 10,1 C 10,1 C 51 % 51 % 1022,3 hPa 0,0 l/m 1,4 km/h (1 Bft) O-SO 112 0,4 C 11,0 C 2,6 km/h (1 Bft)
16.03.2015 16:40 10,0 C 10,0 C 51 % 51 % 1022,3 hPa 0,0 l/m 0,5 km/h (0 Bft) O-SO 112 0,3 C 10,8 C 0,0 km/h (0 Bft)
16.03.2015 16:45 9,8 C 9,8 C 52 % 52 % 1022,2 hPa 0,0 l/m 0,6 km/h (0 Bft) S-SO 157 0,4 C 10,4 C 2,4 km/h (1 Bft)
16.03.2015 16:50 9,6 C 9,6 C 53 % 53 % 1022,2 hPa 0,0 l/m 0,5 km/h (0 Bft) SO 135 0,5 C 10,2 C 0,0 km/h (0 Bft)
16.03.2015 16:55 9,4 C 9,4 C 53 % 53 % 1022,2 hPa 0,0 l/m 0,3 km/h (0 Bft) O-SO 112 0,3 C 9,9 C 0,0 km/h (0 Bft)
16.03.2015 17:00 9,4 C 9,4 C 54 % 54 % 1022,2 hPa 0,0 l/m 0,0 km/h (0 Bft) O 90 0,6 C 9,6 C 0,0 km/h (0 Bft)
16.03.2015 17:05 9,4 C 9,4 C 54 % 54 % 1023,7 hPa 0,0 l/m 0,2 km/h (0 Bft) S-SO 157 0,6 C 9,5 C 2,1 km/h (1 Bft)
16.03.2015 17:10 9,3 C 9,3 C 54 % 54 % 1023,7 hPa 0,0 l/m 0,3 km/h (0 Bft) S 180 0,5 C 9,3 C 0,0 km/h (0 Bft)
16.03.2015 17:15 9,2 C 9,2 C 55 % 55 % 1023,7 hPa 0,0 l/m 0,6 km/h (0 Bft) SO 135 0,6 C 9,0 C 0,0 km/h (0 Bft)
16.03.2015 17:20 9,1 C 9,1 C 55 % 55 % 1023,7 hPa 0,0 l/m 0,3 km/h (0 Bft) S-SO 157 0,5 C 8,9 C 0,0 km/h (0 Bft)
16.03.2015 17:25 9,0 C 9,0 C 55 % 55 % 1022,5 hPa 0,0 l/m 0,2 km/h (0 Bft) S-SO 157 0,5 C 8,7 C 2,1 km/h (1 Bft)
16.03.2015 17:30 8,9 C 8,9 C 56 % 56 % 1022,5 hPa 0,0 l/m 0,2 km/h (0 Bft) SO 135 0,6 C 8,5 C 0,0 km/h (0 Bft)
16.03.2015 17:35 8,5 C 8,5 C 56 % 56 % 1022,5 hPa 0,0 l/m 0,0 km/h (0 Bft) SO 135 0,2 C 8,3 C 0,0 km/h (0 Bft)
16.03.2015 17:40 8,3 C 8,3 C 56 % 56 % 1022,5 hPa 0,0 l/m 0,0 km/h (0 Bft) SO 135 0,0 C 8,1 C 0,0 km/h (0 Bft)
16.03.2015 17:45 8,3 C 8,5 C 57 % 57 % 1022,6 hPa 0,0 l/m 0,2 km/h (0 Bft) S-SO 157 0,5 C 7,9 C 0,0 km/h (0 Bft)
16.03.2015 17:50 8,3 C 8,5 C 57 % 57 % 1022,6 hPa 0,0 l/m 0,6 km/h (0 Bft) S-SO 157 0,5 C 7,9 C 2,1 km/h (1 Bft)
16.03.2015 17:55 8,3 C 8,5 C 57 % 57 % 1022,6 hPa 0,0 l/m 0,6 km/h (0 Bft) SO 135 0,5 C 7,8 C 0,0 km/h (0 Bft)
16.03.2015 18:00 7,9 C 7,9 C 57 % 57 % 1022,6 hPa 0,0 l/m 0,5 km/h (0 Bft) SO 135 -0,1 C 7,5 C 0,0 km/h (0 Bft)
16.03.2015 18:05 7,8 C 7,8 C 58 % 58 % 1022,6 hPa 0,0 l/m 0,0 km/h (0 Bft) SO 135 0,1 C 7,0 C 0,0 km/h (0 Bft)
16.03.2015 18:10 7,8 C 7,8 C 58 % 58 % 1022,6 hPa 0,0 l/m 0,0 km/h (0 Bft) SO 135 0,1 C 6,8 C 1,8 km/h (1 Bft)
16.03.2015 18:15 7,8 C 7,9 C 58 % 58 % 1022,6 hPa 0,0 l/m 0,6 km/h (0 Bft) S 180 0,2 C 6,7 C 2,4 km/h (1 Bft)
16.03.2015 18:20 7,8 C 7,9 C 58 % 58 % 1022,6 hPa 0,0 l/m 1,0 km/h (0 Bft) S-SO 157 0,2 C 6,7 C 0,0 km/h (0 Bft)
16.03.2015 18:25 7,3 C 7,3 C 58 % 58 % 1022,6 hPa 0,0 l/m 0,5 km/h (0 Bft) S-SO 157 -0,4 C 6,4 C 0,0 km/h (0 Bft)
16.03.2015 18:30 6,9 C 6,9 C 59 % 59 % 1022,6 hPa 0,0 l/m 0,2 km/h (0 Bft) S-SO 157 -0,5 C 6,0 C 1,8 km/h (1 Bft)
16.03.2015 18:35 6,9 C 7,2 C 59 % 59 % 1022,6 hPa 0,0 l/m 1,1 km/h (1 Bft) SO 135 -0,3 C 5,9 C 2,6 km/h (1 Bft)
16.03.2015 18:40 6,9 C 7,2 C 59 % 59 % 1022,6 hPa 0,0 l/m 1,8 km/h (1 Bft) SO 135 -0,3 C 6,0 C 2,1 km/h (1 Bft)
16.03.2015 18:45 6,9 C 7,1 C 59 % 59 % 1022,8 hPa 0,0 l/m 2,4 km/h (1 Bft) S-SO 157 -0,4 C 6,0 C 3,4 km/h (1 Bft)
16.03.2015 18:50 6,9 C 7,2 C 59 % 59 % 1022,8 hPa 0,0 l/m 2,4 km/h (1 Bft) SO 135 -0,3 C 6,1 C 2,6 km/h (1 Bft)
16.03.2015 18:55 6,9 C 7,1 C 59 % 59 % 1022,8 hPa 0,0 l/m 2,3 km/h (1 Bft) SO 135 -0,4 C 6,1 C 0,0 km/h (0 Bft)
16.03.2015 19:00 6,6 C 6,6 C 59 % 59 % 1022,8 hPa 0,0 l/m 1,3 km/h (1 Bft) S 180 -0,8 C 5,9 C 1,9 km/h (1 Bft)
16.03.2015 19:05 5,6 C 5,6 C 61 % 61 % 1022,8 hPa 0,0 l/m 0,8 km/h (0 Bft) S-SO 157 -1,3 C 5,2 C 0,0 km/h (0 Bft)
16.03.2015 19:10 5,6 C 5,8 C 62 % 62 % 1022,8 hPa 0,0 l/m 1,4 km/h (1 Bft) S-SO 157 -0,9 C 4,9 C 2,3 km/h (1 Bft)
16.03.2015 19:15 5,6 C 6,3 C 61 % 61 % 1022,8 hPa 0,0 l/m 1,9 km/h (1 Bft) SO 135 -0,7 C 5,2 C 2,6 km/h (1 Bft)
16.03.2015 19:20 5,6 C 6,5 C 61 % 61 % 1022,8 hPa 0,0 l/m 2,3 km/h (1 Bft) S-SO 157 -0,5 C 5,3 C 0,0 km/h (0 Bft)
16.03.2015 19:25 5,6 C 6,5 C 60 % 60 % 1022,8 hPa 0,0 l/m 2,1 km/h (1 Bft) SO 135 -0,7 C 5,4 C 2,1 km/h (1 Bft)
16.03.2015 19:30 5,6 C 6,2 C 60 % 60 % 1022,8 hPa 0,0 l/m 1,4 km/h (1 Bft) S 180 -1,0 C 5,3 C 0,0 km/h (0 Bft)
16.03.2015 19:35 5,4 C 5,4 C 62 % 62 % 1022,8 hPa 0,0 l/m 0,3 km/h (0 Bft) S 180 -1,3 C 4,4 C 0,0 km/h (0 Bft)
16.03.2015 19:40 5,2 C 5,2 C 63 % 63 % 1022,8 hPa 0,0 l/m 0,0 km/h (0 Bft) S 180 -1,3 C 3,9 C 0,0 km/h (0 Bft)
16.03.2015 19:45 4,8 C 4,8 C 63 % 63 % 1023,0 hPa 0,0 l/m 0,0 km/h (0 Bft) S 180 -1,6 C 3,4 C 1,6 km/h (1 Bft)
16.03.2015 19:50 4,5 C 4,5 C 64 % 64 % 1023,0 hPa 0,0 l/m 0,3 km/h (0 Bft) S-SW 202 -1,7 C 3,1 C 0,0 km/h (0 Bft)
16.03.2015 19:55 4,5 C 4,6 C 65 % 65 % 1023,0 hPa 0,0 l/m 0,6 km/h (0 Bft) S-SO 157 -1,4 C 3,0 C 2,1 km/h (1 Bft)
16.03.2015 20:00 4,5 C 5,0 C 65 % 65 % 1023,0 hPa 0,0 l/m 0,8 km/h (0 Bft) SO 135 -1,0 C 3,1 C 0,0 km/h (0 Bft)
16.03.2015 20:05 4,0 C 4,9 C 65 % 65 % 1023,0 hPa 0,0 l/m 0,6 km/h (0 Bft) SO 135 -1,1 C 3,1 C 0,0 km/h (0 Bft)
16.03.2015 20:10 4,2 C 5,0 C 65 % 65 % 1023,0 hPa 0,0 l/m 0,0 km/h (0 Bft) SO 135 -1,0 C 3,1 C 0,0 km/h (0 Bft)
16.03.2015 20:15 4,2 C 5,2 C 65 % 65 % 1023,0 hPa 0,0 l/m 0,2 km/h (0 Bft) SO 135 -0,8 C 3,1 C 0,0 km/h (0 Bft)
16.03.2015 20:20 3,4 C 4,6 C 65 % 65 % 1023,0 hPa 0,0 l/m 0,2 km/h (0 Bft) SO 135 -1,4 C 2,8 C 0,0 km/h (0 Bft)
16.03.2015 20:25 2,8 C 4,0 C 66 % 66 % 1023,1 hPa 0,0 l/m 0,0 km/h (0 Bft) SO 135 -1,8 C 2,2 C 0,0 km/h (0 Bft)
16.03.2015 20:30 3,0 C 3,8 C 67 % 67 % 1023,1 hPa 0,0 l/m 0,0 km/h (0 Bft) SO 135 -1,8 C 2,0 C 0,0 km/h (0 Bft)
16.03.2015 20:35 3,0 C 3,8 C 67 % 67 % 1023,1 hPa 0,0 l/m 0,0 km/h (0 Bft) O-SO 112 -1,8 C 1,8 C 0,0 km/h (0 Bft)
16.03.2015 20:40 2,7 C 3,6 C 67 % 67 % 1023,1 hPa 0,0 l/m 0,5 km/h (0 Bft) W 270 -1,9 C 1,6 C 0,0 km/h (0 Bft)
16.03.2015 20:45 3,0 C 3,5 C 68 % 68 % 1023,2 hPa 0,0 l/m 1,1 km/h (1 Bft) SO 135 -1,8 C 1,5 C 3,2 km/h (1 Bft)
16.03.2015 20:50 3,4 C 3,8 C 68 % 68 % 1023,2 hPa 0,0 l/m 1,8 km/h (1 Bft) SO 135 -1,6 C 1,9 C 4,3 km/h (1 Bft)
16.03.2015 20:55 3,1 C 3,8 C 68 % 68 % 1023,2 hPa 0,0 l/m 1,9 km/h (1 Bft) O-SO 112 -1,6 C 2,2 C 0,0 km/h (0 Bft)
16.03.2015 21:00 2,7 C 3,4 C 68 % 68 % 1023,2 hPa 0,0 l/m 1,1 km/h (1 Bft) W-SW 247 -1,9 C 1,9 C 2,7 km/h (1 Bft)
16.03.2015 21:05 2,4 C 3,0 C 68 % 68 % 1023,1 hPa 0,0 l/m 0,6 km/h (0 Bft) NO 45 -2,3 C 1,5 C 1,9 km/h (1 Bft)
16.03.2015 21:10 2,2 C 2,7 C 69 % 69 % 1023,1 hPa 0,0 l/m 1,3 km/h (1 Bft) SO 135 -2,4 C 1,4 C 0,0 km/h (0 Bft)
16.03.2015 21:15 2,4 C 3,0 C 69 % 69 % 1023,1 hPa 0,0 l/m 0,6 km/h (0 Bft) S-SO 157 -2,1 C 1,3 C 0,0 km/h (0 Bft)
16.03.2015 21:20 2,4 C 3,1 C 69 % 69 % 1023,1 hPa 0,0 l/m 0,0 km/h (0 Bft) S-SO 157 -2,0 C 1,2 C 0,0 km/h (0 Bft)
16.03.2015 21:25 2,0 C 3,0 C 69 % 69 % 1023,1 hPa 0,0 l/m 0,2 km/h (0 Bft) NW 315 -2,1 C 0,9 C 2,1 km/h (1 Bft)
16.03.2015 21:30 1,4 C 2,3 C 69 % 69 % 1023,1 hPa 0,0 l/m 0,2 km/h (0 Bft) S 180 -2,8 C 0,7 C 0,0 km/h (0 Bft)
16.03.2015 21:35 1,4 C 2,1 C 71 % 71 % 1023,1 hPa 0,0 l/m 0,3 km/h (0 Bft) O-SO 112 -2,6 C 0,4 C 1,9 km/h (1 Bft)
16.03.2015 21:40 2,0 C 2,4 C 72 % 72 % 1023,1 hPa 0,0 l/m 1,0 km/h (0 Bft) SO 135 -2,1 C 0,4 C 2,9 km/h (1 Bft)
16.03.2015 21:45 2,8 C 3,1 C 70 % 70 % 1023,1 hPa 0,0 l/m 1,8 km/h (1 Bft) S 180 -1,8 C 1,1 C 3,1 km/h (1 Bft)
16.03.2015 21:50 3,1 C 3,3 C 70 % 70 % 1023,1 hPa 0,0 l/m 1,4 km/h (1 Bft) S 180 -1,6 C 1,6 C 0,0 km/h (0 Bft)
16.03.2015 21:55 2,6 C 3,3 C 70 % 70 % 1023,1 hPa 0,0 l/m 1,3 km/h (1 Bft) S-SO 157 -1,6 C 2,1 C 0,0 km/h (0 Bft)
16.03.2015 22:00 2,0 C 2,7 C 70 % 70 % 1023,1 hPa 0,0 l/m 0,5 km/h (0 Bft) S 180 -2,2 C 1,9 C 0,0 km/h (0 Bft)
16.03.2015 22:05 1,7 C 2,1 C 71 % 71 % 1023,2 hPa 0,0 l/m 0,0 km/h (0 Bft) SO 135 -2,6 C 1,4 C 0,0 km/h (0 Bft)
16.03.2015 22:10 1,8 C 2,3 C 71 % 71 % 1023,2 hPa 0,0 l/m 0,0 km/h (0 Bft) O-NO 67 -2,4 C 1,2 C 0,0 km/h (0 Bft)
16.03.2015 22:15 1,4 C 2,0 C 71 % 71 % 1023,2 hPa 0,0 l/m 0,0 km/h (0 Bft) O-NO 67 -2,7 C 0,8 C 0,0 km/h (0 Bft)
16.03.2015 22:20 1,1 C 1,9 C 72 % 72 % 1023,2 hPa 0,0 l/m 0,0 km/h (0 Bft) O-NO 67 -2,6 C 0,6 C 0,0 km/h (0 Bft)
16.03.2015 22:25 1,2 C 1,8 C 72 % 72 % 1023,1 hPa 0,0 l/m 0,0 km/h (0 Bft) O-NO 67 -2,7 C 0,3 C 0,0 km/h (0 Bft)
16.03.2015 22:30 1,1 C 1,8 C 72 % 72 % 1023,1 hPa 0,0 l/m 0,0 km/h (0 Bft) SO 135 -2,7 C 0,2 C 0,0 km/h (0 Bft)
16.03.2015 22:35 1,3 C 1,9 C 72 % 72 % 1023,1 hPa 0,0 l/m 0,0 km/h (0 Bft) NO 45 -2,6 C 0,2 C 0,0 km/h (0 Bft)
16.03.2015 22:40 1,2 C 1,8 C 72 % 72 % 1023,1 hPa 0,0 l/m 0,0 km/h (0 Bft) NO 45 -2,7 C 0,1 C 0,0 km/h (0 Bft)
16.03.2015 22:45 1,1 C 1,6 C 72 % 72 % 1022,9 hPa 0,0 l/m 0,0 km/h (0 Bft) SO 135 -2,9 C 0,0 C 0,0 km/h (0 Bft)
16.03.2015 22:50 1,7 C 2,0 C 73 % 73 % 1022,9 hPa 0,0 l/m 0,0 km/h (0 Bft) O 90 -2,3 C 0,1 C 0,0 km/h (0 Bft)
16.03.2015 22:55 1,9 C 2,3 C 72 % 72 % 1022,9 hPa 0,0 l/m 0,0 km/h (0 Bft) O 90 -2,2 C 0,7 C 0,0 km/h (0 Bft)
16.03.2015 23:00 1,8 C 2,3 C 72 % 72 % 1022,9 hPa 0,0 l/m 0,0 km/h (0 Bft) SO 135 -2,2 C 0,9 C 0,0 km/h (0 Bft)
16.03.2015 23:05 1,6 C 2,1 C 72 % 72 % 1023,2 hPa 0,0 l/m 0,3 km/h (0 Bft) NW 315 -2,4 C 0,9 C 0,0 km/h (0 Bft)
16.03.2015 23:10 1,3 C 1,8 C 72 % 72 % 1023,2 hPa 0,0 l/m 0,3 km/h (0 Bft) NW 315 -2,7 C 0,7 C 0,0 km/h (0 Bft)
16.03.2015 23:15 1,1 C 1,5 C 72 % 72 % 1023,2 hPa 0,0 l/m 0,2 km/h (0 Bft) O-NO 67 -3,0 C 0,6 C 0,0 km/h (0 Bft)
16.03.2015 23:20 1,3 C 1,5 C 73 % 73 % 1023,2 hPa 0,0 l/m 0,3 km/h (0 Bft) O-NO 67 -2,8 C 0,5 C 1,8 km/h (1 Bft)
16.03.2015 23:25 1,5 C 1,8 C 73 % 73 % 1023,0 hPa 0,0 l/m 0,2 km/h (0 Bft) O-NO 67 -2,5 C 0,7 C 0,0 km/h (0 Bft)
16.03.2015 23:30 2,1 C 2,1 C 73 % 73 % 1023,0 hPa 0,0 l/m 0,2 km/h (0 Bft) N-NO 22 -2,2 C 1,0 C 0,0 km/h (0 Bft)
16.03.2015 23:35 2,2 C 2,5 C 72 % 72 % 1023,0 hPa 0,0 l/m 0,0 km/h (0 Bft) O-NO 67 -2,0 C 1,5 C 0,0 km/h (0 Bft)
16.03.2015 23:40 2,1 C 2,4 C 72 % 72 % 1023,0 hPa 0,0 l/m 0,0 km/h (0 Bft) O-NO 67 -2,1 C 1,5 C 0,0 km/h (0 Bft)
16.03.2015 23:45 2,2 C 2,6 C 71 % 71 % 1022,8 hPa 0,0 l/m 0,0 km/h (0 Bft) N-NW 337 -2,1 C 1,5 C 0,0 km/h (0 Bft)
16.03.2015 23:50 2,3 C 2,6 C 71 % 71 % 1022,8 hPa 0,0 l/m 0,0 km/h (0 Bft) O-NO 67 -2,1 C 1,5 C 0,0 km/h (0 Bft)
16.03.2015 23:55 2,7 C 3,1 C 70 % 70 % 1022,8 hPa 0,0 l/m 0,3 km/h (0 Bft) O-NO 67 -1,8 C 1,6 C 1,9 km/h (1 Bft)
_ Min-Zeit 00:10 00:10 14:45 14:45 14:40 - 23:50 - - 06:50 00:00 23:50
Minimum _ -1,0 C -0,8 C 39 % 39 % 1019,8 hPa - 0,0 km/h (0 Bft) - - -4,2 C -2,3 C 0,0 km/h (0 Bft)
_ Max-Zeit 14:30 14:30 02:25 02:25 17:20 23:55 16:15 - - 13:50 14:10 16:20
Maximum _ 13,5 C 13,5 C 79 % 79 % 1023,7 hPa 0,0 l/m 4,0 km/h
NO (1 Bft)
- - 1,6 C 22,8 C 10,6 km/h
O-SO (2 Bft)
Durchschnitt _ 5,6 C 5,9 C 59 % 59 % 1021,7 hPa #0,0 l/m 0,9 km/h (0 Bft) SO - -1,7 C 6,3 C 1,2 km/h (1 Bft)